I Filed a Vfr Ft Myers to Tampa

Personal Stories, Advice, and Support 3 People

    --- Il ne t'embrasse pas un peu,

    ma fille?--Oh! si, de temps en temps... dans les cheveux.--Dans les cheveux?--Parfaitement, ça le fatigue de se courber.--Il est toujours bien doux avec toi, ma chérie?--Il ne m'a pas encore gifflée.--Ah! vraiment. sac à main longchamp soldes --Ni même maltraitée.--Quel...
    dfdfcwcwe4d dfdfcwcwe4d
    22-25, M
    Dec 24, 2013

    Vfr Ft Myers Tampa

    KFMY Current Weather KFMY 251153Z 10005KT 10SM CLR 14/10 A3026 Observed: Wed, Feb 25, 2009 @ 11:53 UTC(Z) (1 Hour, 1 Minute ago) Wind Visibility Clouds Readings...
    usair727 usair727
    56-60
    Feb 25, 2009
More Stories